Time;durP1;ratioP1;P1;durP2;ratioP2;P2;SDS_P1;SDS_P2;PMS_P1;PMS_P2;Temp;Humidity;BMP_temperature;BMP_pressure;BME280_temperature;BME280_humidity;BME280_pressure;Samples;Min_cycle;Max_cycle;Signal;HPM_P1;HPM_P2
2021/07/08 00:00:36;;;;;;;3.83;3.53;;;16.90;99.90;;;;;;4908172;29;20534;-89
2021/07/08 00:03:06;;;;;;;3.23;2.60;;;16.90;99.90;;;;;;4908038;29;20561;-89
2021/07/08 00:05:36;;;;;;;3.53;2.90;;;16.90;99.90;;;;;;4915878;29;20567;-89
2021/07/08 00:08:03;;;;;;;3.23;2.80;;;16.90;99.90;;;;;;4908108;29;20478;-89
2021/07/08 00:10:32;;;;;;;3.67;2.80;;;17.00;99.90;;;;;;4909943;29;20772;-89
2021/07/08 00:13:00;;;;;;;4.50;2.20;;;17.00;99.90;;;;;;4909468;29;20463;-90
2021/07/08 00:15:28;;;;;;;5.40;3.40;;;17.00;99.90;;;;;;4910328;29;20459;-90
2021/07/08 00:17:56;;;;;;;2.70;2.50;;;17.10;99.90;;;;;;4923227;29;20451;-90
2021/07/08 00:20:26;;;;;;;4.07;2.37;;;17.00;99.90;;;;;;4909636;29;20572;-89
2021/07/08 00:22:53;;;;;;;2.47;2.30;;;17.10;99.90;;;;;;4912206;29;20439;-89
2021/07/08 00:25:25;;;;;;;2.73;2.53;;;17.10;99.90;;;;;;4903145;29;20495;-89
2021/07/08 00:27:54;;;;;;;3.13;2.83;;;17.00;99.90;;;;;;4909150;29;20464;-89
2021/07/08 00:30:23;;;;;;;2.90;2.70;;;17.00;99.90;;;;;;4925460;29;20451;-89
2021/07/08 00:32:57;;;;;;;3.33;2.53;;;16.90;99.90;;;;;;4925593;29;20443;-90
2021/07/08 00:38:43;;;;;;;3.37;2.87;;;17.00;99.90;;;;;;4923654;29;20522;-90
2021/07/08 00:41:10;;;;;;;5.30;3.10;;;17.00;99.90;;;;;;4924743;29;21022;-90
2021/07/08 00:43:46;;;;;;;5.97;3.27;;;17.00;99.90;;;;;;4908900;29;20488;-91
2021/07/08 00:46:12;;;;;;;2.60;2.40;;;16.90;99.90;;;;;;4906899;29;20545;-90
2021/07/08 00:48:39;;;;;;;4.00;3.00;;;16.90;99.90;;;;;;4909322;29;20444;-90
2021/07/08 00:51:05;;;;;;;7.33;3.50;;;16.70;99.90;;;;;;4908101;29;20467;-90
2021/07/08 00:53:32;;;;;;;6.57;3.50;;;16.60;99.90;;;;;;4909238;29;20452;-90
2021/07/08 00:56:04;;;;;;;3.80;3.50;;;16.60;99.90;;;;;;4909150;29;20479;-90
2021/07/08 00:58:31;;;;;;;9.70;4.03;;;16.70;99.90;;;;;;4925509;29;20986;-90
2021/07/08 01:00:58;;;;;;;3.63;3.40;;;16.70;99.90;;;;;;4907996;29;20464;-89
2021/07/08 01:03:25;;;;;;;4.30;3.60;;;16.60;99.90;;;;;;4907260;29;20440;-90
2021/07/08 01:05:54;;;;;;;5.07;4.57;;;16.60;99.90;;;;;;4909442;29;21004;-90
2021/07/08 01:08:22;;;;;;;4.77;4.20;;;16.70;99.90;;;;;;4906860;29;20996;-90
2021/07/08 01:10:51;;;;;;;4.30;3.90;;;16.60;99.90;;;;;;4908856;29;21033;-90
2021/07/08 01:13:25;;;;;;;8.07;4.37;;;16.70;99.90;;;;;;4909510;29;20543;-89
2021/07/08 01:15:51;;;;;;;6.03;5.03;;;16.60;99.90;;;;;;4909214;29;20533;-90
2021/07/08 01:18:18;;;;;;;5.87;4.57;;;16.60;99.90;;;;;;4909082;29;20523;-89
2021/07/08 01:20:44;;;;;;;6.90;5.40;;;16.60;99.90;;;;;;4909211;29;20447;-90
2021/07/08 01:23:10;;;;;;;7.57;5.90;;;16.60;99.90;;;;;;4905536;29;20875;-90
2021/07/08 01:25:42;;;;;;;7.57;6.70;;;16.60;99.90;;;;;;4904978;29;20490;-90
2021/07/08 01:28:09;;;;;;;8.07;7.27;;;16.60;99.90;;;;;;4924809;29;20327;-90
2021/07/08 01:30:36;;;;;;;7.27;6.60;;;16.50;99.90;;;;;;4905627;29;21171;-89
2021/07/08 01:33:04;;;;;;;6.20;5.70;;;16.60;99.90;;;;;;4907527;29;20944;-90
2021/07/08 01:35:37;;;;;;;6.03;5.53;;;16.60;99.90;;;;;;4911701;29;20463;-90
2021/07/08 01:38:04;;;;;;;7.33;6.10;;;16.70;99.90;;;;;;4909468;29;20510;-89
2021/07/08 01:40:30;;;;;;;5.60;5.20;;;16.70;99.90;;;;;;4925161;29;20455;-90
2021/07/08 01:42:56;;;;;;;6.53;5.93;;;16.60;99.90;;;;;;4907161;29;20534;-90
2021/07/08 01:45:26;;;;;;;6.43;5.83;;;16.60;99.90;;;;;;4908607;29;20498;-90
2021/07/08 01:47:52;;;;;;;6.33;5.63;;;16.60;99.90;;;;;;4909889;29;20443;-91
2021/07/08 01:50:19;;;;;;;6.03;5.50;;;16.70;99.90;;;;;;4908957;29;20459;-90
2021/07/08 01:52:46;;;;;;;6.40;5.13;;;16.70;99.90;;;;;;4908366;29;20467;-91
2021/07/08 01:55:14;;;;;;;7.40;5.40;;;16.70;99.90;;;;;;4908769;29;20946;-91
2021/07/08 01:57:45;;;;;;;6.37;5.67;;;16.80;99.90;;;;;;4909667;29;20432;-90
2021/07/08 02:00:14;;;;;;;9.60;5.80;;;16.70;99.90;;;;;;4925065;29;20431;-90
2021/07/08 02:02:41;;;;;;;6.50;5.90;;;16.60;99.90;;;;;;4907102;29;20448;-90
2021/07/08 02:05:08;;;;;;;7.90;6.60;;;16.70;99.90;;;;;;4909293;29;20479;-90
2021/07/08 02:07:35;;;;;;;9.50;6.80;;;16.70;99.90;;;;;;4908012;29;20448;-90
2021/07/08 02:10:03;;;;;;;7.10;6.50;;;16.60;99.90;;;;;;4904275;29;20455;-89
2021/07/08 02:12:30;;;;;;;7.87;7.17;;;16.50;99.90;;;;;;4908730;29;20460;-89
2021/07/08 02:14:55;;;;;;;8.47;7.67;;;16.60;99.90;;;;;;4910157;29;21194;-90
2021/07/08 02:17:21;;;;;;;8.60;6.80;;;16.50;99.90;;;;;;4908541;29;20427;-90
2021/07/08 02:19:47;;;;;;;7.90;7.20;;;16.50;99.90;;;;;;4924096;29;20199;-90
2021/07/08 02:22:13;;;;;;;7.97;7.27;;;16.50;99.90;;;;;;4903042;29;20270;-90
2021/07/08 02:24:39;;;;;;;6.67;6.17;;;16.50;99.90;;;;;;4906816;29;20227;-90
2021/07/08 02:27:08;;;;;;;6.60;6.10;;;16.50;99.90;;;;;;4902198;29;20181;-90
2021/07/08 02:29:35;;;;;;;10.67;6.50;;;16.50;99.90;;;;;;4915949;29;20530;-90
2021/07/08 02:32:01;;;;;;;7.80;7.00;;;16.50;99.90;;;;;;4917187;29;20466;-91
2021/07/08 02:34:29;;;;;;;7.20;6.50;;;16.50;99.90;;;;;;4906908;29;20454;-90
2021/07/08 02:36:55;;;;;;;9.10;6.53;;;16.50;99.90;;;;;;4904893;29;20475;-90
2021/07/08 02:39:20;;;;;;;6.23;5.83;;;16.50;99.90;;;;;;4907413;29;20444;-90
2021/07/08 02:41:47;;;;;;;7.43;6.83;;;16.50;99.90;;;;;;4910357;29;20206;-90
2021/07/08 02:44:20;;;;;;;10.33;7.10;;;16.50;99.90;;;;;;4908620;29;20209;-90
2021/07/08 02:46:46;;;;;;;8.43;6.40;;;16.60;99.90;;;;;;4909623;29;20451;-90
2021/07/08 02:49:13;;;;;;;6.83;6.13;;;16.60;99.90;;;;;;4925792;29;20795;-90
2021/07/08 02:51:40;;;;;;;7.50;6.60;;;16.60;99.90;;;;;;4910725;29;20463;-91
2021/07/08 02:54:06;;;;;;;7.17;6.57;;;16.60;99.90;;;;;;4911135;29;21413;-91
2021/07/08 02:56:34;;;;;;;8.17;6.90;;;16.60;99.90;;;;;;4925251;29;20514;-90
2021/07/08 02:59:06;;;;;;;7.33;6.63;;;16.60;99.90;;;;;;4927667;29;20490;-90
2021/07/08 03:01:40;;;;;;;11.13;6.87;;;16.60;99.90;;;;;;4916223;29;20546;-90
2021/07/08 03:04:07;;;;;;;8.20;7.40;;;16.60;99.90;;;;;;4910540;29;20472;-90
2021/07/08 03:06:34;;;;;;;8.63;7.90;;;16.60;99.90;;;;;;4913540;29;20442;-90
2021/07/08 03:09:02;;;;;;;9.00;6.90;;;16.50;99.90;;;;;;4912269;29;20471;-90
2021/07/08 03:11:29;;;;;;;8.50;7.70;;;16.60;99.90;;;;;;4911655;29;20966;-91
2021/07/08 03:13:55;;;;;;;8.30;7.40;;;16.60;99.90;;;;;;4913389;29;20518;-90
2021/07/08 03:16:22;;;;;;;9.70;7.40;;;16.70;99.90;;;;;;4911738;29;20475;-90
2021/07/08 03:18:58;;;;;;;7.50;6.80;;;16.70;99.90;;;;;;4909660;29;20960;-90
2021/07/08 03:21:25;;;;;;;7.83;7.10;;;16.70;99.90;;;;;;4912265;29;20450;-90
2021/07/08 03:23:52;;;;;;;7.33;6.70;;;16.70;99.90;;;;;;4911597;29;21624;-90
2021/07/08 03:26:18;;;;;;;11.47;5.53;;;16.70;99.90;;;;;;4907451;29;20633;-90
2021/07/08 03:28:46;;;;;;;6.57;5.97;;;16.90;99.90;;;;;;4911673;29;20795;-90
2021/07/08 03:31:27;;;;;;;7.83;6.80;;;16.80;99.90;;;;;;4910845;29;20488;-90
2021/07/08 03:33:54;;;;;;;7.20;6.60;;;16.60;99.90;;;;;;4907898;29;20530;-90
2021/07/08 03:36:20;;;;;;;7.13;6.43;;;16.60;99.90;;;;;;4911655;29;20546;-91
2021/07/08 03:38:47;;;;;;;7.27;6.50;;;16.50;99.90;;;;;;4910789;29;20530;-90
2021/07/08 03:41:21;;;;;;;6.80;6.30;;;16.50;99.90;;;;;;4908784;29;20455;-90
2021/07/08 03:43:48;;;;;;;7.13;5.97;;;16.60;99.90;;;;;;4910870;29;22368;-90
2021/07/08 03:46:16;;;;;;;10.13;6.13;;;16.70;99.90;;;;;;4918324;29;20605;-90
2021/07/08 03:48:43;;;;;;;4.70;4.33;;;16.70;99.90;;;;;;4909691;29;20661;-90
2021/07/08 03:51:10;;;;;;;8.20;4.87;;;16.70;99.90;;;;;;4904402;29;20464;-90
2021/07/08 03:53:39;;;;;;;5.47;4.43;;;16.80;99.90;;;;;;4910299;29;20459;-90
2021/07/08 03:56:06;;;;;;;5.10;4.60;;;16.70;99.90;;;;;;4908890;29;20458;-90
2021/07/08 03:58:36;;;;;;;4.43;4.13;;;16.70;99.90;;;;;;4909701;29;20491;-90
2021/07/08 04:01:07;;;;;;;5.97;4.53;;;16.70;99.90;;;;;;4892397;29;20468;-90
2021/07/08 04:03:35;;;;;;;5.97;5.23;;;16.70;99.90;;;;;;4894926;29;20473;-91
2021/07/08 04:06:04;;;;;;;5.13;4.60;;;16.70;99.90;;;;;;4909223;29;20496;-90
2021/07/08 04:08:31;;;;;;;5.00;4.60;;;16.70;99.90;;;;;;4908631;29;20455;-89
2021/07/08 04:11:00;;;;;;;5.23;4.80;;;16.70;99.90;;;;;;4908951;29;20487;-90
2021/07/08 04:13:30;;;;;;;6.73;5.57;;;16.70;99.90;;;;;;4909262;29;20444;-90
2021/07/08 04:15:57;;;;;;;5.90;5.10;;;16.70;99.90;;;;;;4905842;29;20466;-90
2021/07/08 04:18:26;;;;;;;5.43;5.03;;;16.70;99.90;;;;;;4910533;29;20448;-90
2021/07/08 04:20:53;;;;;;;5.63;5.03;;;16.70;99.90;;;;;;4916694;29;20459;-90
2021/07/08 04:23:20;;;;;;;6.70;5.97;;;16.60;99.90;;;;;;4910238;29;20463;-90
2021/07/08 04:25:47;;;;;;;6.20;5.37;;;16.60;99.90;;;;;;4907329;29;20499;-90
2021/07/08 04:28:14;;;;;;;5.90;5.40;;;16.60;99.90;;;;;;4909981;29;20855;-91
2021/07/08 04:30:43;;;;;;;7.10;6.10;;;16.60;99.90;;;;;;4908722;29;20461;-90
2021/07/08 04:33:09;;;;;;;6.13;5.63;;;16.60;99.90;;;;;;4910915;29;20596;-90
2021/07/08 04:35:38;;;;;;;7.97;6.83;;;16.60;99.90;;;;;;4910903;29;20996;-90
2021/07/08 04:38:07;;;;;;;8.80;6.53;;;16.60;99.90;;;;;;4911682;29;20455;-90
2021/07/08 04:40:34;;;;;;;6.80;6.10;;;16.50;99.90;;;;;;4910850;29;20997;-90
2021/07/08 04:43:02;;;;;;;8.07;5.93;;;16.60;99.90;;;;;;4905051;29;20495;-90
2021/07/08 04:45:36;;;;;;;6.57;5.97;;;16.70;99.90;;;;;;4909713;29;20998;-90
2021/07/08 04:48:03;;;;;;;7.13;6.53;;;16.70;99.90;;;;;;4909819;29;20533;-90
2021/07/08 04:50:33;;;;;;;6.73;5.83;;;16.70;99.90;;;;;;4910007;29;20459;-90
2021/07/08 04:52:59;;;;;;;8.53;6.43;;;16.80;99.90;;;;;;4921257;29;21060;-90
2021/07/08 04:55:26;;;;;;;7.43;6.03;;;16.90;99.90;;;;;;4906612;29;20478;-90
2021/07/08 04:57:56;;;;;;;7.10;6.50;;;16.90;99.90;;;;;;4910049;29;20455;-89
2021/07/08 05:00:23;;;;;;;6.53;5.90;;;16.90;99.90;;;;;;4907020;29;20463;-89
2021/07/08 05:02:52;;;;;;;6.70;6.20;;;16.90;99.90;;;;;;4909095;29;20452;-90
2021/07/08 05:05:20;;;;;;;7.20;6.60;;;16.90;99.90;;;;;;4905841;29;20491;-89
2021/07/08 05:07:50;;;;;;;7.57;6.97;;;16.90;99.90;;;;;;4922008;29;20499;-89
2021/07/08 05:10:16;;;;;;;7.47;6.73;;;16.90;99.90;;;;;;4908053;29;20479;-90
2021/07/08 05:12:43;;;;;;;7.00;6.40;;;16.80;99.90;;;;;;4907125;29;20466;-90
2021/07/08 05:15:13;;;;;;;7.80;7.00;;;16.80;99.90;;;;;;4906676;29;20557;-88
2021/07/08 05:17:40;;;;;;;7.50;6.80;;;16.80;99.90;;;;;;4907359;29;20472;-89
2021/07/08 05:20:08;;;;;;;7.07;6.47;;;16.80;99.90;;;;;;4909592;29;20454;-90
2021/07/08 05:22:37;;;;;;;7.63;7.03;;;16.90;99.90;;;;;;4908932;29;20465;-90
2021/07/08 05:25:08;;;;;;;7.57;6.77;;;16.90;99.90;;;;;;4908578;29;20487;-89
2021/07/08 05:27:39;;;;;;;6.70;6.10;;;16.90;99.90;;;;;;4909593;29;20537;-90
2021/07/08 05:30:08;;;;;;;9.30;7.17;;;17.00;99.90;;;;;;4908081;29;20993;-89
2021/07/08 05:32:37;;;;;;;7.90;7.20;;;17.00;99.90;;;;;;4909041;29;20443;-90
2021/07/08 05:35:05;;;;;;;11.00;7.63;;;17.00;99.90;;;;;;4910661;29;20463;-89
2021/07/08 05:37:35;;;;;;;9.00;7.63;;;16.90;99.90;;;;;;4902454;29;20499;-89
2021/07/08 05:40:03;;;;;;;10.00;8.43;;;16.90;99.90;;;;;;4911559;29;20494;-89
2021/07/08 05:42:35;;;;;;;8.80;7.90;;;16.90;99.90;;;;;;4904569;29;20471;-90
2021/07/08 05:45:26;;;;;;;8.30;7.50;;;16.90;99.90;;;;;;4920957;29;20560;-90
2021/07/08 05:47:58;;;;;;;6.73;6.03;;;16.90;99.90;;;;;;4903941;29;20512;-90
2021/07/08 05:50:26;;;;;;;6.80;4.80;;;17.10;99.90;;;;;;4922596;29;20454;-89
2021/07/08 05:53:03;;;;;;;6.40;5.80;;;17.20;99.90;;;;;;4922407;29;20473;-89
2021/07/08 05:55:46;;;;;;;6.73;5.80;;;17.40;99.90;;;;;;4905901;29;20649;-89
2021/07/08 06:01:22;;;;;;;8.07;7.07;;;17.40;99.90;;;;;;4923943;29;20451;-89
2021/07/08 06:03:59;;;;;;;8.53;7.73;;;17.30;99.90;;;;;;4924690;29;20475;-89
2021/07/08 06:06:38;;;;;;;8.53;7.60;;;17.20;99.90;;;;;;4907871;29;20513;-89
2021/07/08 06:09:05;;;;;;;8.77;7.87;;;17.30;99.90;;;;;;4908742;29;20499;-88
2021/07/08 06:11:31;;;;;;;9.13;8.23;;;17.30;99.90;;;;;;4907719;29;20451;-89
2021/07/08 06:13:59;;;;;;;12.63;8.70;;;17.30;99.90;;;;;;4907077;29;20255;-89
2021/07/08 06:16:26;;;;;;;13.83;9.27;;;17.30;99.90;;;;;;4909680;29;20870;-89
2021/07/08 06:18:52;;;;;;;10.20;9.20;;;17.20;99.90;;;;;;4910462;29;20432;-88
2021/07/08 06:21:18;;;;;;;10.20;9.30;;;17.20;99.90;;;;;;4911038;29;20455;-88
2021/07/08 06:23:44;;;;;;;9.27;8.27;;;17.20;99.90;;;;;;4911966;29;20493;-89
2021/07/08 06:26:12;;;;;;;9.40;8.27;;;17.40;99.90;;;;;;4910859;29;20514;-89
2021/07/08 06:28:46;;;;;;;9.90;9.00;;;17.50;99.90;;;;;;4905994;29;20286;-89
2021/07/08 06:31:14;;;;;;;11.60;7.80;;;17.80;99.90;;;;;;4926268;29;20813;-89
2021/07/08 06:33:54;;;;;;;9.13;7.20;;;18.10;99.90;;;;;;4908191;29;20455;-89
2021/07/08 06:36:24;;;;;;;7.17;6.40;;;18.40;99.90;;;;;;4910647;29;20683;-90
2021/07/08 06:41:32;;;;;;;6.50;5.90;;;18.60;99.90;;;;;;4926433;29;20467;-89
2021/07/08 06:44:01;;;;;;;8.07;6.80;;;18.60;99.90;;;;;;4911434;29;20890;-89
2021/07/08 06:46:31;;;;;;;7.10;6.50;;;18.50;99.90;;;;;;4927679;29;20498;-89
2021/07/08 06:49:00;;;;;;;8.83;8.07;;;18.40;99.90;;;;;;4920025;29;20497;-89
2021/07/08 06:51:28;;;;;;;9.20;7.80;;;18.20;99.90;;;;;;4909866;29;20471;-88
2021/07/08 06:53:58;;;;;;;8.10;7.40;;;18.00;99.90;;;;;;4903869;29;20456;-89
2021/07/08 06:56:51;;;;;;;8.33;7.30;;;17.80;99.90;;;;;;4925136;29;20451;-89
2021/07/08 06:59:25;;;;;;;8.77;7.90;;;17.70;99.90;;;;;;4910193;29;20459;-89
2021/07/08 07:01:53;;;;;;;8.20;7.20;;;17.70;99.90;;;;;;4908815;29;20462;-89
2021/07/08 07:04:21;;;;;;;8.77;8.00;;;17.70;99.90;;;;;;4910753;29;20447;-89
2021/07/08 07:07:02;;;;;;;9.53;8.10;;;17.50;99.90;;;;;;4918229;29;20475;-89
2021/07/08 07:09:28;;;;;;;9.10;8.23;;;17.50;99.90;;;;;;4924467;29;20534;-89
2021/07/08 07:11:55;;;;;;;7.87;7.10;;;17.50;99.90;;;;;;4911714;29;20511;-90
2021/07/08 07:14:23;;;;;;;9.03;7.73;;;17.60;99.90;;;;;;4911950;29;20470;-89
2021/07/08 07:16:50;;;;;;;7.87;7.17;;;17.70;99.90;;;;;;4926402;29;20471;-89
2021/07/08 07:19:16;;;;;;;10.60;8.20;;;17.70;99.90;;;;;;4910709;29;20455;-89
2021/07/08 07:21:44;;;;;;;8.97;8.07;;;17.90;99.90;;;;;;4908873;29;22305;-89
2021/07/08 07:24:12;;;;;;;10.47;8.00;;;18.00;99.90;;;;;;4910128;29;20511;-89
2021/07/08 07:26:38;;;;;;;8.90;8.00;;;18.10;99.90;;;;;;4908136;29;20889;-89
2021/07/08 07:29:05;;;;;;;8.10;7.27;;;18.20;99.90;;;;;;4911721;29;20537;-89
2021/07/08 07:31:30;;;;;;;11.37;8.40;;;18.40;99.90;;;;;;4907370;29;20204;-89
2021/07/08 07:33:57;;;;;;;8.03;7.33;;;18.40;99.90;;;;;;4908321;29;20439;-89
2021/07/08 07:36:23;;;;;;;9.03;8.00;;;18.50;99.90;;;;;;4904132;29;20290;-90
2021/07/08 07:38:49;;;;;;;8.53;7.83;;;18.50;99.90;;;;;;4909807;29;20530;-88
2021/07/08 07:41:16;;;;;;;8.30;7.50;;;18.40;99.90;;;;;;4925756;29;20211;-89
2021/07/08 07:43:45;;;;;;;10.50;8.50;;;18.30;99.90;;;;;;4909101;29;20454;-89
2021/07/08 07:46:12;;;;;;;9.30;8.40;;;18.40;99.90;;;;;;4911290;29;20590;-89
2021/07/08 07:48:40;;;;;;;9.27;8.33;;;18.50;99.90;;;;;;4907461;29;20456;-89
2021/07/08 07:51:06;;;;;;;8.60;7.70;;;18.50;99.90;;;;;;4926446;29;20454;-89
2021/07/08 07:53:34;;;;;;;10.87;7.10;;;18.60;99.90;;;;;;4908599;29;20443;-89
2021/07/08 07:56:02;;;;;;;7.63;6.83;;;18.70;99.90;;;;;;4909570;29;20258;-90
2021/07/08 07:58:30;;;;;;;7.47;6.77;;;18.90;99.90;;;;;;4926295;29;20933;-89
2021/07/08 08:00:58;;;;;;;8.60;7.07;;;19.00;99.90;;;;;;4909054;29;21076;-90
2021/07/08 08:04:02;;;;;;;11.47;6.80;;;18.90;99.90;;;;;;4924769;29;20454;-90
2021/07/08 08:10:29;;;;;;;8.93;8.03;;;18.70;99.90;;;;;;4923859;29;20474;-88
2021/07/08 08:13:19;;;;;;;9.17;8.27;;;18.60;99.90;;;;;;4909298;29;20837;-89
2021/07/08 08:19:11;;;;;;;9.33;7.33;;;18.90;99.90;;;;;;4923920;29;20478;-88
2021/07/08 08:21:40;;;;;;;8.77;7.83;;;19.10;99.90;;;;;;4925946;29;20835;-90
2021/07/08 08:27:22;;;;;;;8.87;7.97;;;19.60;99.90;;;;;;4917414;29;20530;-89
2021/07/08 08:30:15;;;;;;;;;;;;;;;;;;;;;
2021/07/08 08:32:43;;;;;;;10.10;7.70;;;20.20;99.90;;;;;;4916963;29;21012;-89
2021/07/08 08:35:10;;;;;;;8.73;7.83;;;20.30;99.90;;;;;;4922638;29;20458;-88
2021/07/08 08:37:43;;;;;;;7.70;7.00;;;20.10;99.90;;;;;;4908036;29;20522;-88
2021/07/08 08:40:26;;;;;;;;;;;;;;;;;;;;;
2021/07/08 08:43:05;;;;;;;7.43;6.70;;;19.70;99.90;;;;;;4921597;29;20451;-90
2021/07/08 08:45:47;;;;;;;7.50;6.77;;;20.00;99.90;;;;;;4908149;29;20926;-88
2021/07/08 08:48:29;;;;;;;7.30;6.53;;;20.60;99.90;;;;;;4904523;29;20458;-88
2021/07/08 08:51:05;;;;;;;7.73;7.00;;;20.80;99.90;;;;;;4904974;29;20463;-87
2021/07/08 08:53:45;;;;;;;8.83;7.93;;;20.30;99.90;;;;;;4905146;29;20882;-87
2021/07/08 08:56:45;;;;;;;;;;;;;;;;;;;;;
2021/07/08 20:06:59;;;;;;;9.00;8.30;;;17.10;99.90;;;;;;4900566;29;20511;-87
2021/07/08 20:09:25;;;;;;;7.87;7.27;;;17.10;99.90;;;;;;4904592;29;20469;-89
2021/07/08 20:11:51;;;;;;;7.33;6.63;;;17.10;99.90;;;;;;4880999;29;20962;-90
2021/07/08 20:14:17;;;;;;;7.00;6.50;;;17.10;99.90;;;;;;4905588;29;20457;-87
2021/07/08 20:16:43;;;;;;;7.07;6.47;;;17.10;99.90;;;;;;4883913;29;20463;-87
2021/07/08 20:19:10;;;;;;;6.53;5.93;;;17.10;99.90;;;;;;4882122;29;20324;-88
2021/07/08 20:21:36;;;;;;;7.93;7.33;;;17.10;99.90;;;;;;4898026;29;20717;-88
2021/07/08 20:24:10;;;;;;;7.40;6.80;;;17.10;99.90;;;;;;4892548;29;20625;-87
2021/07/08 20:26:37;;;;;;;8.33;7.73;;;17.00;99.90;;;;;;4888127;29;20231;-88
2021/07/08 20:29:03;;;;;;;7.00;6.40;;;17.00;99.90;;;;;;4884346;29;20772;-88
2021/07/08 20:31:29;;;;;;;7.67;7.03;;;16.90;99.90;;;;;;4899198;29;20192;-87
2021/07/08 20:33:55;;;;;;;7.60;6.90;;;16.80;99.90;;;;;;4896189;29;20804;-88
2021/07/08 20:36:22;;;;;;;6.80;5.70;;;16.80;99.90;;;;;;4905303;29;20503;-88
2021/07/08 20:38:50;;;;;;;5.57;5.20;;;16.80;99.90;;;;;;4883402;29;20458;-88
2021/07/08 20:41:18;;;;;;;6.53;6.00;;;16.90;99.90;;;;;;4883091;29;20465;-88
2021/07/08 20:43:53;;;;;;;7.13;6.53;;;16.80;99.90;;;;;;4875175;29;20466;-86
2021/07/08 20:46:33;;;;;;;7.10;6.50;;;16.70;99.90;;;;;;4898804;29;20495;-89
2021/07/08 20:49:01;;;;;;;9.23;7.10;;;16.70;99.90;;;;;;4898832;29;20464;-89
2021/07/08 20:51:31;;;;;;;7.73;7.03;;;16.60;99.90;;;;;;4900868;29;20472;-89
2021/07/08 20:53:59;;;;;;;7.47;6.87;;;16.60;99.90;;;;;;4899292;29;20457;-89
2021/07/08 20:56:32;;;;;;;9.13;8.43;;;16.70;99.90;;;;;;4894547;29;21030;-88
2021/07/08 20:58:58;;;;;;;9.50;7.90;;;16.70;99.90;;;;;;4901255;29;20452;-89
2021/07/08 21:01:24;;;;;;;9.63;8.73;;;16.80;99.90;;;;;;4890421;29;20449;-89
2021/07/08 21:03:56;;;;;;;9.03;7.90;;;16.70;99.90;;;;;;4900499;29;20247;-89
2021/07/08 21:06:30;;;;;;;7.73;6.93;;;16.80;99.90;;;;;;4899891;29;20499;-89
2021/07/08 21:08:59;;;;;;;8.87;8.27;;;16.90;99.90;;;;;;4900229;29;20488;-89
2021/07/08 21:11:26;;;;;;;9.97;9.03;;;16.80;99.90;;;;;;4897142;29;20448;-89
2021/07/08 21:14:03;;;;;;;9.90;9.03;;;16.70;99.90;;;;;;4894408;29;20483;-89
2021/07/08 21:16:32;;;;;;;8.97;8.27;;;16.70;99.90;;;;;;4895169;29;20555;-89
2021/07/08 21:19:04;;;;;;;9.80;8.53;;;16.70;99.90;;;;;;4896195;29;20540;-88
2021/07/08 21:21:33;;;;;;;9.47;8.73;;;16.60;99.90;;;;;;4894380;29;20441;-88
2021/07/08 21:24:01;;;;;;;8.80;8.10;;;16.60;99.90;;;;;;4895468;29;20461;-89
2021/07/08 21:26:28;;;;;;;10.10;9.00;;;16.60;99.90;;;;;;4896584;29;21032;-88
2021/07/08 21:29:09;;;;;;;8.60;7.90;;;16.60;99.90;;;;;;4895472;29;20449;-89
2021/07/08 21:31:43;;;;;;;9.30;8.50;;;16.70;99.90;;;;;;4886577;29;20463;-89
2021/07/08 21:34:14;;;;;;;9.43;8.70;;;16.60;99.90;;;;;;4901976;29;20847;-89
2021/07/08 21:36:44;;;;;;;9.37;8.57;;;16.60;99.90;;;;;;4904318;29;20448;-88
2021/07/08 21:39:21;;;;;;;9.87;8.97;;;16.60;99.90;;;;;;4898414;29;20855;-88
2021/07/08 21:41:55;;;;;;;10.40;9.50;;;16.60;99.90;;;;;;4900183;29;20504;-89
2021/07/08 21:44:26;;;;;;;9.90;9.00;;;16.60;99.90;;;;;;4897511;29;20449;-89
2021/07/08 21:47:03;;;;;;;9.77;8.87;;;16.60;99.90;;;;;;4878786;29;20491;-88
2021/07/08 21:49:29;;;;;;;9.53;8.73;;;16.50;99.90;;;;;;4899963;29;20499;-89
2021/07/08 21:51:58;;;;;;;9.57;8.67;;;16.50;99.90;;;;;;4897565;29;20464;-89
2021/07/08 21:54:25;;;;;;;11.30;9.20;;;16.60;99.90;;;;;;4880983;29;20220;-89
2021/07/08 21:56:54;;;;;;;10.33;9.53;;;16.50;99.90;;;;;;4899608;29;20460;-89
2021/07/08 21:59:24;;;;;;;10.73;9.83;;;16.50;99.90;;;;;;4901186;29;20196;-88
2021/07/08 22:01:51;;;;;;;11.00;10.00;;;16.50;99.90;;;;;;4880656;29;20762;-89
2021/07/08 22:04:24;;;;;;;9.70;8.80;;;16.50;99.90;;;;;;4896561;29;20825;-88
2021/07/08 22:06:53;;;;;;;9.50;8.80;;;16.50;99.90;;;;;;4897013;29;20489;-89
2021/07/08 22:09:20;;;;;;;9.87;9.00;;;16.50;99.90;;;;;;4888372;29;20460;-88
2021/07/08 22:11:47;;;;;;;10.50;9.50;;;16.50;99.90;;;;;;4897696;29;20597;-88
2021/07/08 22:14:13;;;;;;;10.77;9.67;;;16.40;99.90;;;;;;4899793;29;20542;-89
2021/07/08 22:16:39;;;;;;;11.97;10.97;;;16.40;99.90;;;;;;4896846;29;20552;-88
2021/07/08 22:19:06;;;;;;;12.33;11.20;;;16.40;99.90;;;;;;4879672;29;20200;-88
2021/07/08 22:21:35;;;;;;;10.97;10.07;;;16.30;99.90;;;;;;4900777;29;20437;-88
2021/07/08 22:24:03;;;;;;;11.53;10.53;;;16.30;99.90;;;;;;4882960;29;20443;-88
2021/07/08 22:26:33;;;;;;;11.70;10.70;;;16.20;99.90;;;;;;4886295;29;20839;-89
2021/07/08 22:29:01;;;;;;;11.27;10.17;;;16.20;99.90;;;;;;4896553;29;21042;-89
2021/07/08 22:31:28;;;;;;;11.30;10.10;;;16.20;99.90;;;;;;4897348;29;20463;-88
2021/07/08 22:33:54;;;;;;;10.90;9.90;;;16.20;99.90;;;;;;4895864;29;20463;-86
2021/07/08 22:36:19;;;;;;;9.73;8.83;;;16.20;99.90;;;;;;4899505;29;20453;-88
2021/07/08 22:38:45;;;;;;;10.97;8.73;;;16.20;99.90;;;;;;4895572;29;20659;-88
2021/07/08 22:41:12;;;;;;;9.13;8.23;;;16.20;99.90;;;;;;4900127;29;20234;-88
2021/07/08 22:43:37;;;;;;;9.70;8.90;;;16.20;99.90;;;;;;4901652;29;20441;-88
2021/07/08 22:46:06;;;;;;;9.30;8.30;;;16.10;99.90;;;;;;4899958;29;20609;-88
2021/07/08 22:48:32;;;;;;;8.57;7.87;;;16.10;99.90;;;;;;4900799;29;20197;-88
2021/07/08 22:50:58;;;;;;;8.90;8.20;;;16.10;99.90;;;;;;4900262;29;20465;-88
2021/07/08 22:53:25;;;;;;;9.47;8.50;;;16.10;99.90;;;;;;4895910;29;20461;-87
2021/07/08 22:55:58;;;;;;;8.93;8.13;;;16.00;99.90;;;;;;4899206;29;20204;-89
2021/07/08 22:58:25;;;;;;;8.33;7.63;;;16.10;99.90;;;;;;4886371;29;20877;-88
2021/07/08 23:00:55;;;;;;;8.93;7.97;;;16.00;99.90;;;;;;4898455;29;20456;-89
2021/07/08 23:03:20;;;;;;;8.10;7.23;;;16.00;99.90;;;;;;4899408;29;20551;-87
2021/07/08 23:06:12;;;;;;;8.40;7.60;;;16.00;99.90;;;;;;4899415;29;20562;-87
2021/07/08 23:08:38;;;;;;;7.67;7.07;;;16.00;99.90;;;;;;4898761;29;20228;-88
2021/07/08 23:11:06;;;;;;;7.27;6.57;;;15.90;99.90;;;;;;4899470;29;21024;-89
2021/07/08 23:13:38;;;;;;;7.40;6.90;;;15.90;99.90;;;;;;4898463;29;20964;-89
2021/07/08 23:16:04;;;;;;;6.77;6.13;;;15.80;99.90;;;;;;4899223;29;21026;-87
2021/07/08 23:18:33;;;;;;;7.13;5.90;;;15.80;99.90;;;;;;4897499;29;20452;-88
2021/07/08 23:21:01;;;;;;;6.77;6.03;;;15.80;99.90;;;;;;4900264;29;20985;-88
2021/07/08 23:23:27;;;;;;;7.40;6.70;;;15.80;99.90;;;;;;4888206;29;21385;-88
2021/07/08 23:25:56;;;;;;;7.40;6.80;;;15.80;99.90;;;;;;4892926;29;20476;-89
2021/07/08 23:28:24;;;;;;;7.50;6.90;;;15.70;99.90;;;;;;4881315;29;20503;-88
2021/07/08 23:30:50;;;;;;;7.43;6.73;;;15.70;99.90;;;;;;4887258;29;20464;-88
2021/07/08 23:33:18;;;;;;;6.60;6.03;;;15.70;99.90;;;;;;4900771;29;20822;-88
2021/07/08 23:35:46;;;;;;;7.93;6.53;;;15.70;99.90;;;;;;4884076;29;21348;-89
2021/07/08 23:38:12;;;;;;;6.40;5.77;;;15.60;99.90;;;;;;4904783;29;20463;-88
2021/07/08 23:40:39;;;;;;;6.87;6.23;;;15.60;99.90;;;;;;4885698;29;20453;-88
